createdAt,value
2023-08-11T00:00:09.676Z,13.35
2023-08-11T00:02:40.594Z,11.65
2023-08-11T00:05:09.593Z,13.20
2023-08-11T00:07:36.610Z,12.55
2023-08-11T00:10:04.520Z,13.88
2023-08-11T00:12:31.662Z,13.00
2023-08-11T00:14:58.672Z,13.68
2023-08-11T00:17:25.837Z,14.45
2023-08-11T00:19:52.999Z,15.45
2023-08-11T00:22:20.065Z,15.90
2023-08-11T00:24:48.348Z,16.23
2023-08-11T00:27:15.448Z,16.38
2023-08-11T00:29:42.514Z,17.77
2023-08-11T00:32:09.999Z,17.05
2023-08-11T00:34:37.250Z,17.85
2023-08-11T00:37:05.050Z,18.83
2023-08-11T00:39:32.449Z,18.20
2023-08-11T00:42:00.935Z,17.70
2023-08-11T00:44:27.989Z,17.02
2023-08-11T00:46:55.017Z,18.38
2023-08-11T00:49:22.803Z,17.45
2023-08-11T00:51:50.001Z,19.10
2023-08-11T00:54:18.057Z,18.95
2023-08-11T00:56:46.065Z,18.45
2023-08-11T00:59:13.446Z,19.55
2023-08-11T01:01:41.398Z,18.58
2023-08-11T01:04:08.765Z,19.52
2023-08-11T01:07:06.424Z,20.05
2023-08-11T01:09:48.870Z,20.75
2023-08-11T01:12:36.926Z,20.10
2023-08-11T01:15:09.828Z,20.65
2023-08-11T01:17:40.111Z,20.52
2023-08-11T01:20:12.189Z,23.33
2023-08-11T01:22:45.623Z,22.80
2023-08-11T01:25:14.042Z,26.30
2023-08-11T01:27:46.128Z,24.77
2023-08-11T01:30:14.570Z,26.50
2023-08-11T01:32:41.803Z,27.38
2023-08-11T01:35:10.583Z,27.90
2023-08-11T01:37:38.268Z,26.25
2023-08-11T01:40:12.057Z,26.35
2023-08-11T01:42:46.737Z,27.45
2023-08-11T01:45:22.814Z,22.52
2023-08-11T01:47:51.171Z,24.05
2023-08-11T01:50:19.807Z,25.33
2023-08-11T01:52:48.852Z,24.80
2023-08-11T01:55:18.051Z,23.65
2023-08-11T01:57:57.744Z,24.05
2023-08-11T02:00:28.478Z,21.65
2023-08-11T02:02:57.206Z,21.98
2023-08-11T02:05:26.292Z,21.35
2023-08-11T02:07:54.784Z,23.15
2023-08-11T02:10:22.070Z,22.65
2023-08-11T02:12:52.253Z,23.58
2023-08-11T02:15:20.216Z,23.92
2023-08-11T02:17:47.803Z,20.70
2023-08-11T02:20:23.328Z,21.00
2023-08-11T02:22:52.725Z,19.33
2023-08-11T02:25:20.146Z,18.73
2023-08-11T02:27:48.263Z,20.55
2023-08-11T02:30:15.949Z,19.35
2023-08-11T02:32:43.580Z,19.15
2023-08-11T02:35:11.994Z,17.40
2023-08-11T02:37:40.111Z,16.25
2023-08-11T02:40:10.421Z,17.60
2023-08-11T02:42:45.566Z,17.00
2023-08-11T02:45:12.853Z,17.30
2023-08-11T02:47:40.923Z,16.25
2023-08-11T02:50:09.968Z,16.98
2023-08-11T02:52:37.887Z,14.93
2023-08-11T02:55:06.485Z,14.60
2023-08-11T02:57:34.917Z,14.18
2023-08-11T03:00:05.285Z,14.75
2023-08-11T03:02:33.117Z,14.35
2023-08-11T03:05:00.216Z,15.23
2023-08-11T03:07:27.439Z,15.45
2023-08-11T03:09:57.065Z,14.50
2023-08-11T03:12:24.366Z,13.90
2023-08-11T03:14:51.541Z,13.32
2023-08-11T03:17:18.572Z,13.60
2023-08-11T03:19:45.652Z,14.15
2023-08-11T03:22:12.821Z,14.77
2023-08-11T03:24:40.707Z,15.48
2023-08-11T03:27:08.013Z,15.43
2023-08-11T03:29:35.505Z,18.55
2023-08-11T03:32:02.969Z,16.88
2023-08-11T03:34:31.751Z,18.77
2023-08-11T03:36:59.293Z,19.08
2023-08-11T03:39:27.092Z,20.50
2023-08-11T03:41:54.068Z,20.73
2023-08-11T03:44:22.586Z,19.33
2023-08-11T03:46:50.809Z,18.88
2023-08-11T03:49:18.355Z,20.23
2023-08-11T03:51:45.552Z,19.90
2023-08-11T03:54:13.241Z,19.67
2023-08-11T03:56:41.041Z,18.85
2023-08-11T03:59:09.022Z,16.60
2023-08-11T04:01:36.919Z,15.98
2023-08-11T04:04:04.138Z,26.73
2023-08-11T04:06:34.055Z,14.93
2023-08-11T04:09:03.128Z,17.65
2023-08-11T04:11:31.284Z,15.75
2023-08-11T04:13:58.304Z,16.10
2023-08-11T04:16:25.722Z,15.20
2023-08-11T04:18:52.684Z,14.30
2023-08-11T04:21:19.879Z,13.65
2023-08-11T04:23:46.887Z,13.70
2023-08-11T04:26:15.264Z,13.15
2023-08-11T04:28:44.945Z,13.40
2023-08-11T04:31:15.112Z,11.48
2023-08-11T04:33:42.833Z,10.95
2023-08-11T04:36:11.785Z,10.35
2023-08-11T04:38:40.793Z,9.30
2023-08-11T04:41:09.100Z,9.40
2023-08-11T04:43:36.149Z,8.30
2023-08-11T04:46:05.454Z,8.50
2023-08-11T04:48:33.855Z,7.85
2023-08-11T04:51:00.941Z,7.60
2023-08-11T04:53:28.918Z,7.38
2023-08-11T04:55:56.086Z,7.60
2023-08-11T04:58:23.408Z,8.27
2023-08-11T05:00:51.288Z,8.00
2023-08-11T05:03:20.236Z,8.35
2023-08-11T05:05:47.314Z,8.68
2023-08-11T05:08:14.661Z,8.25
2023-08-11T05:10:41.704Z,6.90
2023-08-11T05:13:08.701Z,6.95
2023-08-11T05:15:36.313Z,6.80
2023-08-11T05:18:03.652Z,6.25
2023-08-11T05:20:30.699Z,6.13
2023-08-11T05:22:57.764Z,6.70
2023-08-11T05:25:24.910Z,10.68
2023-08-11T05:27:51.941Z,5.95
2023-08-11T05:30:19.517Z,6.28
2023-08-11T05:32:46.607Z,6.13
2023-08-11T05:35:15.282Z,6.80
2023-08-11T05:37:42.576Z,7.75
2023-08-11T05:40:10.636Z,7.00
2023-08-11T05:42:38.996Z,7.00
2023-08-11T05:45:06.662Z,7.18
2023-08-11T05:47:36.941Z,6.97
2023-08-11T05:50:04.456Z,7.72
2023-08-11T05:52:31.620Z,7.43
2023-08-11T05:54:59.146Z,7.28
2023-08-11T05:57:26.085Z,6.93
2023-08-11T05:59:55.837Z,7.13
2023-08-11T06:02:23.299Z,7.30
2023-08-11T06:04:52.352Z,6.95
2023-08-11T06:07:19.416Z,7.43
2023-08-11T06:09:46.470Z,8.68
2023-08-11T06:12:13.511Z,7.93
2023-08-11T06:14:40.641Z,7.57
2023-08-11T06:17:09.933Z,8.00
2023-08-11T06:19:39.680Z,8.38
2023-08-11T06:22:07.937Z,8.05
2023-08-11T06:24:35.059Z,7.75
2023-08-11T06:27:02.633Z,8.05
2023-08-11T06:29:29.834Z,7.97
2023-08-11T06:31:57.429Z,7.25
2023-08-11T06:34:24.726Z,7.45
2023-08-11T06:36:51.725Z,7.10
2023-08-11T06:39:18.745Z,6.70
2023-08-11T06:41:45.882Z,6.40
2023-08-11T06:44:13.495Z,6.57
2023-08-11T06:46:40.545Z,6.50
2023-08-11T06:49:07.656Z,6.82
2023-08-11T06:51:34.745Z,13.68
2023-08-11T06:54:01.858Z,7.72
2023-08-11T06:56:28.992Z,6.72
2023-08-11T06:58:56.184Z,6.60
2023-08-11T07:01:23.242Z,6.40
2023-08-11T07:03:51.067Z,5.95
2023-08-11T07:06:18.208Z,5.78
2023-08-11T07:08:45.253Z,6.38
2023-08-11T07:11:12.916Z,5.95
2023-08-11T07:13:40.060Z,6.60
2023-08-11T07:16:07.111Z,5.97
2023-08-11T07:18:34.059Z,5.95
2023-08-11T07:21:01.060Z,6.10
2023-08-11T07:23:28.600Z,6.07
2023-08-11T07:25:55.970Z,6.00
2023-08-11T07:28:23.284Z,6.35
2023-08-11T07:30:50.337Z,6.25
2023-08-11T07:33:17.418Z,6.60
2023-08-11T07:35:45.095Z,6.07
2023-08-11T07:38:12.785Z,6.18
2023-08-11T07:40:40.549Z,6.35
2023-08-11T07:43:08.010Z,6.80
2023-08-11T07:45:35.292Z,7.15
2023-08-11T07:48:02.646Z,6.22
2023-08-11T07:50:29.826Z,6.30
2023-08-11T07:52:57.792Z,6.38
2023-08-11T07:55:25.009Z,6.55
2023-08-11T07:57:52.502Z,7.10
2023-08-11T08:00:22.609Z,6.70
2023-08-11T08:05:17.493Z,7.57
2023-08-11T08:07:44.620Z,6.60
2023-08-11T08:10:12.687Z,6.18
2023-08-11T08:12:41.169Z,6.38
2023-08-11T08:15:10.417Z,6.80
2023-08-11T08:17:39.365Z,6.40
2023-08-11T08:20:10.649Z,6.63
2023-08-11T08:22:38.151Z,6.68
2023-08-11T08:25:08.909Z,6.90
2023-08-11T08:27:38.088Z,7.53
2023-08-11T08:30:06.595Z,7.55
2023-08-11T08:32:35.432Z,9.27
2023-08-11T08:35:02.597Z,8.65
2023-08-11T08:37:32.830Z,8.50
2023-08-11T08:40:00.410Z,7.60
2023-08-11T08:42:27.931Z,7.57
2023-08-11T08:44:55.565Z,8.60
2023-08-11T08:47:23.508Z,7.88
2023-08-11T08:49:52.098Z,8.45
2023-08-11T08:52:20.200Z,8.75
2023-08-11T08:54:48.166Z,8.75
2023-08-11T08:57:17.354Z,8.48
2023-08-11T08:59:44.733Z,8.68
2023-08-11T09:02:14.373Z,8.55
2023-08-11T09:04:43.229Z,9.48
2023-08-11T09:07:12.308Z,9.35
2023-08-11T09:09:39.504Z,9.25
2023-08-11T09:12:06.629Z,9.80
2023-08-11T09:14:33.810Z,10.27
2023-08-11T09:17:03.920Z,9.18
2023-08-11T09:19:31.829Z,8.88
2023-08-11T09:21:58.880Z,9.32
2023-08-11T09:24:25.922Z,8.77
2023-08-11T09:26:53.945Z,9.18
2023-08-11T09:29:21.371Z,9.30
2023-08-11T09:31:50.815Z,9.23
2023-08-11T09:34:19.163Z,9.30
2023-08-11T09:36:49.237Z,9.00
2023-08-11T09:41:49.434Z,8.45
2023-08-11T09:44:18.586Z,9.73
2023-08-11T09:46:47.611Z,9.35
2023-08-11T09:49:15.570Z,9.13
2023-08-11T09:51:43.859Z,9.43
2023-08-11T09:54:12.245Z,8.25
2023-08-11T09:56:43.548Z,8.63
2023-08-11T09:59:19.930Z,9.63
2023-08-11T10:01:48.369Z,9.10
2023-08-11T10:04:31.248Z,9.32
2023-08-11T10:07:00.950Z,10.30
2023-08-11T10:09:33.174Z,9.50
2023-08-11T10:12:00.963Z,8.77
2023-08-11T10:14:30.112Z,9.20
2023-08-11T10:17:00.810Z,8.95
2023-08-11T10:19:28.643Z,8.82
2023-08-11T10:21:58.255Z,8.93
2023-08-11T10:24:26.684Z,8.65
2023-08-11T10:26:54.109Z,9.38
2023-08-11T10:29:22.266Z,9.35
2023-08-11T10:32:00.205Z,9.25
2023-08-11T10:34:28.081Z,8.25
2023-08-11T10:36:56.697Z,9.23
2023-08-11T10:39:25.056Z,9.23
2023-08-11T10:41:52.412Z,9.20
2023-08-11T10:44:27.861Z,10.05
2023-08-11T10:46:58.348Z,10.02
2023-08-11T10:49:34.407Z,8.48
2023-08-11T10:52:03.867Z,8.80
2023-08-11T10:54:31.355Z,8.90
2023-08-11T10:57:01.650Z,9.15
2023-08-11T10:59:31.499Z,9.32
2023-08-11T11:04:31.072Z,9.20
2023-08-11T11:07:00.307Z,9.07
2023-08-11T11:09:29.254Z,10.68
2023-08-11T11:11:57.859Z,9.60
2023-08-11T11:14:29.236Z,10.23
2023-08-11T11:17:01.144Z,10.90
2023-08-11T11:19:29.090Z,10.57
2023-08-11T11:21:56.428Z,10.68
2023-08-11T11:24:23.632Z,10.45
2023-08-11T11:26:50.922Z,10.52
2023-08-11T11:29:24.365Z,10.30
2023-08-11T11:31:52.254Z,10.23
2023-08-11T11:34:19.778Z,9.02
2023-08-11T11:36:47.989Z,8.93
2023-08-11T11:39:15.746Z,9.13
2023-08-11T11:41:42.812Z,9.23
2023-08-11T11:44:09.804Z,9.07
2023-08-11T11:46:37.085Z,9.40
2023-08-11T11:49:09.606Z,9.25
2023-08-11T11:51:43.595Z,9.10
2023-08-11T11:54:10.687Z,9.18
2023-08-11T11:56:39.735Z,9.43
2023-08-11T11:59:09.395Z,9.02
2023-08-11T12:01:38.023Z,7.88
2023-08-11T12:04:05.345Z,7.90
2023-08-11T12:06:32.493Z,9.27
2023-08-11T12:09:10.325Z,33.20
2023-08-11T12:11:40.763Z,8.27
2023-08-11T12:14:08.849Z,8.27
2023-08-11T12:16:36.561Z,8.52
2023-08-11T12:19:04.581Z,8.13
2023-08-11T12:21:32.562Z,8.85
2023-08-11T12:23:59.932Z,8.48
2023-08-11T12:26:27.894Z,8.57
2023-08-11T12:28:55.615Z,8.60
2023-08-11T12:31:23.396Z,8.10
2023-08-11T12:33:50.558Z,8.88
2023-08-11T12:36:17.839Z,8.68
2023-08-11T12:38:45.149Z,13.93
2023-08-11T12:41:12.390Z,8.70
2023-08-11T12:43:39.454Z,8.85
2023-08-11T12:46:06.781Z,9.23
2023-08-11T12:48:33.956Z,9.27
2023-08-11T12:51:02.691Z,9.85
2023-08-11T12:53:29.958Z,10.40
2023-08-11T12:55:57.398Z,10.10
2023-08-11T12:58:24.764Z,10.70
2023-08-11T13:00:52.020Z,10.88
2023-08-11T13:03:19.356Z,10.57
2023-08-11T13:05:46.337Z,11.35
2023-08-11T13:08:13.456Z,10.82
2023-08-11T13:10:40.372Z,11.32
2023-08-11T13:13:07.466Z,10.82
2023-08-11T13:15:34.511Z,10.88
2023-08-11T13:18:02.122Z,9.98
2023-08-11T13:20:29.461Z,11.13
2023-08-11T13:22:56.540Z,32.75
2023-08-11T13:25:24.336Z,10.80
2023-08-11T13:27:51.498Z,9.93
2023-08-11T13:30:20.813Z,11.30
2023-08-11T13:32:47.966Z,10.27
2023-08-11T13:35:15.132Z,10.00
2023-08-11T13:37:42.247Z,9.82
2023-08-11T13:40:10.509Z,10.55
2023-08-11T13:42:38.049Z,11.05
2023-08-11T13:45:06.766Z,10.25
2023-08-11T13:47:33.777Z,10.68
2023-08-11T13:50:00.807Z,10.70
2023-08-11T13:52:27.842Z,10.48
2023-08-11T13:55:02.432Z,10.75
2023-08-11T13:57:32.703Z,10.60
2023-08-11T14:00:01.055Z,10.70
2023-08-11T14:02:29.441Z,11.15
2023-08-11T14:04:56.672Z,12.00
2023-08-11T14:07:32.274Z,12.07
2023-08-11T14:10:01.746Z,11.85
2023-08-11T14:12:32.124Z,11.40
2023-08-11T14:15:01.528Z,10.90
2023-08-11T14:19:58.679Z,10.85
2023-08-11T14:22:25.882Z,9.50
2023-08-11T14:24:55.976Z,10.07
2023-08-11T14:27:23.705Z,9.85
2023-08-11T14:29:53.309Z,56.72
2023-08-11T14:32:25.503Z,11.18
2023-08-11T14:34:54.222Z,10.00
2023-08-11T14:37:22.188Z,11.35
2023-08-11T14:39:49.295Z,11.50
2023-08-11T14:42:16.508Z,10.68
2023-08-11T14:44:46.321Z,10.25
2023-08-11T14:47:16.639Z,10.10
2023-08-11T14:49:44.651Z,9.80
2023-08-11T14:52:12.846Z,10.35
2023-08-11T14:54:40.843Z,9.40
2023-08-11T14:57:08.869Z,10.43
2023-08-11T14:59:36.121Z,10.57
2023-08-11T15:02:03.149Z,11.30
2023-08-11T15:04:30.209Z,10.40
2023-08-11T15:06:57.383Z,11.07
2023-08-11T15:09:24.494Z,10.70
2023-08-11T15:11:51.864Z,12.02
2023-08-11T15:14:18.846Z,14.95
2023-08-11T15:16:46.535Z,10.82
2023-08-11T15:19:13.619Z,10.73
2023-08-11T15:21:40.798Z,10.68
2023-08-11T15:24:08.839Z,10.63
2023-08-11T15:26:39.594Z,10.93
2023-08-11T15:29:06.955Z,10.95
2023-08-11T15:31:34.039Z,11.23
2023-08-11T15:34:01.060Z,10.75
2023-08-11T15:36:28.259Z,11.40
2023-08-11T15:38:55.871Z,11.52
2023-08-11T15:41:22.978Z,11.73
2023-08-11T15:43:50.580Z,10.27
2023-08-11T15:46:17.651Z,11.05
2023-08-11T15:48:45.048Z,11.10
2023-08-11T15:51:12.109Z,11.10
2023-08-11T15:53:39.443Z,9.73
2023-08-11T15:56:06.697Z,9.50
2023-08-11T15:58:33.802Z,10.75
2023-08-11T16:01:03.685Z,11.75
2023-08-11T16:05:58.478Z,10.85
2023-08-11T16:08:25.458Z,10.73
2023-08-11T16:10:52.552Z,10.10
2023-08-11T16:13:19.745Z,11.02
2023-08-11T16:15:46.770Z,12.00
2023-08-11T16:18:13.868Z,11.27
2023-08-11T16:20:40.846Z,12.75
2023-08-11T16:23:08.006Z,13.38
2023-08-11T16:25:35.210Z,12.73
2023-08-11T16:28:03.490Z,12.57
2023-08-11T16:30:31.098Z,13.02
2023-08-11T16:32:58.148Z,12.57
2023-08-11T16:35:25.248Z,11.68
2023-08-11T16:37:52.299Z,13.98
2023-08-11T16:40:19.339Z,12.77
2023-08-11T16:42:46.965Z,11.60
2023-08-11T16:45:13.954Z,12.70
2023-08-11T16:47:41.015Z,14.27
2023-08-11T16:50:08.374Z,12.75
2023-08-11T16:52:35.499Z,12.45
2023-08-11T16:55:03.672Z,11.88
2023-08-11T16:57:31.111Z,12.07
2023-08-11T16:59:58.190Z,13.32
2023-08-11T17:02:25.355Z,11.73
2023-08-11T17:04:52.521Z,11.82
2023-08-11T17:07:19.575Z,12.50
2023-08-11T17:09:46.694Z,12.95
2023-08-11T17:12:14.206Z,12.40
2023-08-11T17:14:41.705Z,12.43
2023-08-11T17:17:08.902Z,12.80
2023-08-11T17:19:37.589Z,13.48
2023-08-11T17:22:05.256Z,14.75
2023-08-11T17:24:32.479Z,12.85
2023-08-11T17:26:59.584Z,12.57
2023-08-11T17:29:26.748Z,13.00
2023-08-11T17:31:53.912Z,13.30
2023-08-11T17:34:21.158Z,13.35
2023-08-11T17:36:50.845Z,13.73
2023-08-11T17:39:19.091Z,13.05
2023-08-11T17:41:49.567Z,12.70
2023-08-11T17:44:18.631Z,12.32
2023-08-11T17:46:46.145Z,15.80
2023-08-11T17:49:13.656Z,13.75
2023-08-11T17:51:42.337Z,14.05
2023-08-11T17:54:10.564Z,14.57
2023-08-11T17:56:39.330Z,16.73
2023-08-11T17:59:08.384Z,16.85
2023-08-11T18:01:40.663Z,16.98
2023-08-11T18:04:11.370Z,15.73
2023-08-11T18:06:44.289Z,17.10
2023-08-11T18:09:12.318Z,16.27
2023-08-11T18:11:40.577Z,14.88
2023-08-11T18:14:07.775Z,15.00
2023-08-11T18:16:34.937Z,14.98
2023-08-11T18:19:02.190Z,15.45
2023-08-11T18:21:29.585Z,15.48
2023-08-11T18:23:57.081Z,14.07
2023-08-11T18:26:25.032Z,41.22
2023-08-11T18:28:52.350Z,17.42
2023-08-11T18:31:20.343Z,12.30
2023-08-11T18:33:47.438Z,12.88
2023-08-11T18:36:14.745Z,16.88
2023-08-11T18:38:46.150Z,11.43
2023-08-11T18:41:13.532Z,12.02
2023-08-11T18:43:40.920Z,12.23
2023-08-11T18:46:08.095Z,10.77
2023-08-11T18:48:35.453Z,12.27
2023-08-11T18:51:02.680Z,10.50
2023-08-11T18:53:30.680Z,11.50
2023-08-11T18:55:59.196Z,10.60
2023-08-11T18:58:26.392Z,10.57
2023-08-11T19:00:53.922Z,9.63
2023-08-11T19:03:21.200Z,9.65
2023-08-11T19:05:48.393Z,9.13
2023-08-11T19:08:16.391Z,9.73
2023-08-11T19:10:45.186Z,9.80
2023-08-11T19:13:13.194Z,9.32
2023-08-11T19:15:41.470Z,9.43
2023-08-11T19:18:08.881Z,8.93
2023-08-11T19:20:35.874Z,8.85
2023-08-11T19:23:03.070Z,8.18
2023-08-11T19:25:30.714Z,9.20
2023-08-11T19:27:57.919Z,9.05
2023-08-11T19:30:26.799Z,7.82
2023-08-11T19:32:54.994Z,8.07
2023-08-11T19:35:23.999Z,7.65
2023-08-11T19:37:51.559Z,8.20
2023-08-11T19:40:18.767Z,8.93
2023-08-11T19:42:46.959Z,8.55
2023-08-11T19:45:14.037Z,8.77
2023-08-11T19:47:41.043Z,9.00
2023-08-11T19:50:08.606Z,8.85
2023-08-11T19:52:35.923Z,9.98
2023-08-11T19:55:03.016Z,9.48
2023-08-11T19:57:31.130Z,11.80
2023-08-11T19:59:58.202Z,9.95
2023-08-11T20:02:26.426Z,10.55
2023-08-11T20:04:53.507Z,10.00
2023-08-11T20:07:22.752Z,10.68
2023-08-11T20:09:49.892Z,12.98
2023-08-11T20:12:16.977Z,9.27
2023-08-11T20:14:43.963Z,10.35
2023-08-11T20:17:11.149Z,11.13
2023-08-11T20:19:38.671Z,11.75
2023-08-11T20:22:05.973Z,18.33
2023-08-11T20:24:33.256Z,17.90
2023-08-11T20:27:10.396Z,14.35
2023-08-11T20:29:37.712Z,12.07
2023-08-11T20:32:07.565Z,19.02
2023-08-11T20:37:02.652Z,18.17
2023-08-11T20:39:29.676Z,12.75
2023-08-11T20:41:58.857Z,10.60
2023-08-11T20:44:26.075Z,10.30
2023-08-11T20:46:53.888Z,10.40
2023-08-11T20:49:21.023Z,11.07
2023-08-11T20:51:48.169Z,12.20
2023-08-11T20:54:15.124Z,12.07
2023-08-11T20:56:42.286Z,15.13
2023-08-11T20:59:09.927Z,19.08
2023-08-11T21:01:37.074Z,13.35
2023-08-11T21:04:04.493Z,13.73
2023-08-11T21:06:31.845Z,16.08
2023-08-11T21:08:58.868Z,12.43
2023-08-11T21:11:25.861Z,12.32
2023-08-11T21:13:55.891Z,11.05
2023-08-11T21:16:23.074Z,11.35
2023-08-11T21:18:51.497Z,11.10
2023-08-11T21:21:18.712Z,13.00
2023-08-11T21:23:46.010Z,12.25
2023-08-11T21:26:13.502Z,11.70
2023-08-11T21:28:40.877Z,12.00
2023-08-11T21:31:18.043Z,12.18
2023-08-11T21:34:12.674Z,10.52
2023-08-11T21:36:41.778Z,13.00
2023-08-11T21:39:12.756Z,10.82
2023-08-11T21:41:40.282Z,10.98
2023-08-11T21:44:10.973Z,11.82
2023-08-11T21:46:40.136Z,10.82
2023-08-11T21:49:07.272Z,11.23
2023-08-11T21:51:34.286Z,10.43
2023-08-11T21:54:01.346Z,10.50
2023-08-11T21:56:28.438Z,10.57
2023-08-11T21:58:55.432Z,11.13
2023-08-11T22:01:22.461Z,11.65
2023-08-11T22:03:49.447Z,11.07
2023-08-11T22:06:16.480Z,11.02
2023-08-11T22:08:43.812Z,10.82
2023-08-11T22:11:30.419Z,12.07
2023-08-11T22:14:04.548Z,11.63
2023-08-11T22:16:32.411Z,11.30
2023-08-11T22:18:59.716Z,11.77
2023-08-11T22:21:26.942Z,11.77
2023-08-11T22:23:53.924Z,11.65
2023-08-11T22:26:20.935Z,11.65
2023-08-11T22:28:48.133Z,11.85
2023-08-11T22:31:15.391Z,13.60
2023-08-11T22:33:42.542Z,14.68
2023-08-11T22:36:09.892Z,11.25
2023-08-11T22:38:36.915Z,11.10
2023-08-11T22:41:04.195Z,11.70
2023-08-11T22:43:31.348Z,11.00
2023-08-11T22:45:58.494Z,11.93
2023-08-11T22:48:26.089Z,10.82
2023-08-11T22:50:53.103Z,11.20
2023-08-11T22:53:20.601Z,11.40
2023-08-11T22:55:47.791Z,10.30
2023-08-11T22:58:14.788Z,10.43
2023-08-11T23:00:41.813Z,9.93
2023-08-11T23:03:08.996Z,10.65
2023-08-11T23:05:36.236Z,10.45
2023-08-11T23:08:03.563Z,10.48
2023-08-11T23:10:30.574Z,12.50
2023-08-11T23:12:57.802Z,10.35
2023-08-11T23:15:32.772Z,10.15
2023-08-11T23:18:02.045Z,9.90
2023-08-11T23:20:29.132Z,9.57
2023-08-11T23:22:56.177Z,10.07
2023-08-11T23:25:23.210Z,10.25
2023-08-11T23:27:50.301Z,36.35
2023-08-11T23:30:17.331Z,12.13
2023-08-11T23:32:44.370Z,10.65
2023-08-11T23:35:11.423Z,10.63
2023-08-11T23:37:38.441Z,10.20
2023-08-11T23:40:05.950Z,9.85
2023-08-11T23:42:33.048Z,10.07
2023-08-11T23:45:00.123Z,10.00
2023-08-11T23:47:27.371Z,10.98
2023-08-11T23:49:54.544Z,10.05
2023-08-11T23:52:23.292Z,11.38
2023-08-11T23:54:53.654Z,10.50
2023-08-11T23:57:23.068Z,10.35
2023-08-11T23:59:50.292Z,9.52
